createdAt,value
2022-09-18T00:01:41.471Z,66.54
2022-09-18T00:04:10.721Z,65.76
2022-09-18T00:06:40.633Z,65.81
2022-09-18T00:09:10.059Z,64.02
2022-09-18T00:11:39.798Z,64.71
2022-09-18T00:14:08.715Z,65.79
2022-09-18T00:16:35.634Z,66.51
2022-09-18T00:19:02.687Z,65.89
2022-09-18T00:21:31.731Z,64.62
2022-09-18T00:24:01.225Z,65.56
2022-09-18T00:26:28.252Z,65.84
2022-09-18T00:28:55.198Z,65.97
2022-09-18T00:31:29.666Z,64.91
2022-09-18T00:33:57.463Z,64.96
2022-09-18T00:36:23.967Z,64.69
2022-09-18T00:38:51.153Z,64.23
2022-09-18T00:41:19.436Z,64.30
2022-09-18T00:43:45.980Z,64.26
2022-09-18T00:46:15.368Z,65.55
2022-09-18T00:49:17.644Z,64.19
2022-09-18T00:51:47.561Z,65.29
2022-09-18T00:54:13.899Z,64.07
2022-09-18T00:56:40.627Z,65.65
2022-09-18T00:59:12.549Z,66.24
2022-09-18T01:01:38.947Z,67.10
2022-09-18T01:04:11.482Z,66.25
2022-09-18T01:07:05.987Z,64.43
2022-09-18T01:09:57.208Z,66.62
2022-09-18T01:12:38.993Z,64.45
2022-09-18T01:15:34.944Z,64.59
2022-09-18T01:18:34.785Z,65.75
2022-09-18T01:21:16.373Z,67.61
2022-09-18T01:24:01.125Z,64.71
2022-09-18T01:26:46.123Z,65.47
2022-09-18T01:29:30.829Z,63.52
2022-09-18T01:32:11.238Z,65.25
2022-09-18T01:34:57.852Z,64.21
2022-09-18T01:37:37.538Z,65.22
2022-09-18T01:40:17.611Z,63.14
2022-09-18T01:42:47.455Z,62.35
2022-09-18T01:45:19.439Z,64.14
2022-09-18T01:47:52.595Z,63.09
2022-09-18T01:50:19.810Z,65.15
2022-09-18T01:52:57.087Z,65.68
2022-09-18T01:55:28.365Z,63.71
2022-09-18T01:58:07.258Z,63.75
2022-09-18T02:00:37.092Z,63.09
2022-09-18T02:03:39.509Z,63.50
2022-09-18T02:06:13.530Z,64.01
2022-09-18T02:08:47.828Z,65.02
2022-09-18T02:11:17.212Z,63.70
2022-09-18T02:13:49.089Z,62.22
2022-09-18T02:16:24.784Z,63.86
2022-09-18T02:18:56.484Z,62.41
2022-09-18T02:21:27.433Z,63.50
2022-09-18T02:24:00.514Z,62.21
2022-09-18T02:26:27.060Z,62.68
2022-09-18T02:28:55.798Z,64.14
2022-09-18T02:31:22.584Z,63.08
2022-09-18T02:33:49.318Z,63.61
2022-09-18T02:36:46.252Z,63.32
2022-09-18T02:39:38.275Z,65.13
2022-09-18T02:42:59.039Z,63.04
2022-09-18T02:45:36.150Z,62.88
2022-09-18T02:48:14.384Z,63.94
2022-09-18T02:50:40.753Z,65.94
2022-09-18T02:53:22.471Z,64.40
2022-09-18T02:56:15.559Z,66.26
2022-09-18T02:58:50.149Z,63.97
2022-09-18T03:01:18.711Z,63.40
2022-09-18T03:03:48.193Z,63.27
2022-09-18T03:06:14.625Z,64.07
2022-09-18T03:08:41.186Z,64.05
2022-09-18T03:11:07.664Z,63.17
2022-09-18T03:13:34.031Z,64.18
2022-09-18T03:16:00.582Z,64.40
2022-09-18T03:18:27.380Z,65.34
2022-09-18T03:20:53.769Z,63.84
2022-09-18T03:23:20.284Z,64.33
2022-09-18T03:25:50.124Z,62.48
2022-09-18T03:28:17.233Z,65.07
2022-09-18T03:30:44.884Z,63.93
2022-09-18T03:33:11.353Z,62.09
2022-09-18T03:35:37.802Z,61.47
2022-09-18T03:38:04.259Z,63.98
2022-09-18T03:40:30.791Z,65.16
2022-09-18T03:42:57.223Z,61.98
2022-09-18T03:45:23.605Z,63.00
2022-09-18T03:47:49.977Z,61.90
2022-09-18T03:50:16.390Z,61.75
2022-09-18T03:52:45.608Z,61.54
2022-09-18T03:55:14.285Z,62.75
2022-09-18T03:57:40.679Z,62.31
2022-09-18T04:00:07.833Z,61.75
2022-09-18T04:02:34.268Z,63.54
2022-09-18T04:05:00.736Z,62.47
2022-09-18T04:07:27.156Z,62.84
2022-09-18T04:09:53.562Z,60.46
2022-09-18T04:12:20.678Z,63.11
2022-09-18T04:14:47.081Z,62.51
2022-09-18T04:17:13.500Z,60.66
2022-09-18T04:19:39.869Z,60.81
2022-09-18T04:22:06.263Z,64.46
2022-09-18T04:24:32.683Z,61.51
2022-09-18T04:26:59.056Z,64.03
2022-09-18T04:29:25.460Z,65.05
2022-09-18T04:31:51.967Z,63.43
2022-09-18T04:34:18.437Z,62.85
2022-09-18T04:36:44.960Z,63.93
2022-09-18T04:39:11.396Z,62.57
2022-09-18T04:41:37.785Z,62.43
2022-09-18T04:44:04.263Z,63.13
2022-09-18T04:46:30.751Z,62.89
2022-09-18T04:48:57.227Z,62.31
2022-09-18T04:51:23.618Z,63.97
2022-09-18T04:53:50.115Z,64.45
2022-09-18T04:56:16.806Z,63.07
2022-09-18T04:58:43.244Z,62.96
2022-09-18T05:01:09.788Z,62.82
2022-09-18T05:03:36.235Z,64.80
2022-09-18T05:06:02.670Z,67.39
2022-09-18T05:08:29.843Z,64.51
2022-09-18T05:10:56.267Z,66.47
2022-09-18T05:13:22.775Z,67.06
2022-09-18T05:15:49.223Z,63.97
2022-09-18T05:18:15.624Z,65.18
2022-09-18T05:20:42.143Z,65.46
2022-09-18T05:23:08.626Z,64.36
2022-09-18T05:25:35.103Z,66.28
2022-09-18T05:28:03.159Z,64.64
2022-09-18T05:30:31.136Z,66.60
2022-09-18T05:32:59.276Z,64.01
2022-09-18T05:35:27.307Z,66.26
2022-09-18T05:37:54.850Z,65.86
2022-09-18T05:40:26.193Z,65.47
2022-09-18T05:42:53.139Z,67.44
2022-09-18T05:45:20.739Z,65.17
2022-09-18T05:47:54.157Z,62.94
2022-09-18T05:50:21.434Z,63.41
2022-09-18T05:52:48.328Z,64.15
2022-09-18T05:55:14.775Z,65.20
2022-09-18T05:57:41.172Z,64.07
2022-09-18T06:00:08.188Z,63.58
2022-09-18T06:02:34.638Z,63.20
2022-09-18T06:05:01.045Z,64.48
2022-09-18T06:07:27.437Z,65.13
2022-09-18T06:09:53.888Z,65.46
2022-09-18T06:12:20.271Z,64.15
2022-09-18T06:14:46.645Z,64.13
2022-09-18T06:17:13.053Z,64.28
2022-09-18T06:19:39.453Z,64.95
2022-09-18T06:22:05.888Z,64.62
2022-09-18T06:24:32.280Z,63.61
2022-09-18T06:26:58.706Z,64.04
2022-09-18T06:29:25.095Z,64.92
2022-09-18T06:31:51.738Z,62.84
2022-09-18T06:34:18.226Z,63.79
2022-09-18T06:36:44.603Z,63.95
2022-09-18T06:39:10.998Z,63.28
2022-09-18T06:41:37.369Z,62.40
2022-09-18T06:44:03.793Z,62.43
2022-09-18T06:46:30.232Z,62.09
2022-09-18T06:48:56.659Z,63.63
2022-09-18T06:51:23.059Z,61.38
2022-09-18T06:53:49.419Z,60.41
2022-09-18T06:56:15.819Z,62.85
2022-09-18T06:58:42.204Z,61.16
2022-09-18T07:01:08.843Z,61.94
2022-09-18T07:03:35.293Z,60.65
2022-09-18T07:06:01.685Z,58.86
2022-09-18T07:08:28.073Z,61.92
2022-09-18T07:10:54.461Z,61.40
2022-09-18T07:13:20.841Z,60.33
2022-09-18T07:15:47.922Z,60.52
2022-09-18T07:18:14.399Z,60.42
2022-09-18T07:20:40.839Z,59.11
2022-09-18T07:23:07.250Z,60.52
2022-09-18T07:25:34.535Z,59.37
2022-09-18T07:28:10.357Z,59.05
2022-09-18T07:30:37.720Z,57.65
2022-09-18T07:33:06.125Z,56.88
2022-09-18T07:35:33.571Z,58.20
2022-09-18T07:38:00.933Z,59.96
2022-09-18T07:40:28.411Z,59.35
2022-09-18T07:43:03.098Z,57.06
2022-09-18T07:45:29.762Z,55.68
2022-09-18T07:47:56.467Z,57.91
2022-09-18T07:50:23.391Z,56.85
2022-09-18T07:52:56.074Z,56.55
2022-09-18T07:55:24.239Z,54.06
2022-09-18T07:57:58.682Z,53.16
2022-09-18T08:00:25.902Z,55.49
2022-09-18T08:03:03.439Z,54.67
2022-09-18T08:05:30.362Z,54.99
2022-09-18T08:08:01.277Z,54.79
2022-09-18T08:10:27.667Z,55.00
2022-09-18T08:12:54.466Z,53.89
2022-09-18T08:15:20.880Z,54.19
2022-09-18T08:17:47.290Z,53.18
2022-09-18T08:20:14.229Z,56.17
2022-09-18T08:22:41.336Z,55.48
2022-09-18T08:25:09.072Z,52.69
2022-09-18T08:27:36.869Z,54.07
2022-09-18T08:30:03.627Z,52.80
2022-09-18T08:32:30.008Z,55.16
2022-09-18T08:34:56.489Z,55.02
2022-09-18T08:37:22.917Z,55.85
2022-09-18T08:39:49.315Z,55.60
2022-09-18T08:42:43.419Z,54.63
2022-09-18T08:45:15.676Z,56.27
2022-09-18T08:47:50.363Z,55.61
2022-09-18T08:50:24.505Z,58.52
2022-09-18T08:52:56.373Z,62.16
2022-09-18T08:55:45.672Z,63.56
2022-09-18T08:58:20.080Z,61.31
2022-09-18T09:00:50.604Z,64.18
2022-09-18T09:03:19.771Z,64.03
2022-09-18T09:05:53.882Z,65.99
2022-09-18T09:08:38.243Z,65.40
2022-09-18T09:11:34.937Z,65.00
2022-09-18T09:14:56.712Z,65.21
2022-09-18T09:17:51.503Z,64.37
2022-09-18T09:20:25.484Z,63.31
2022-09-18T09:23:12.798Z,64.47
2022-09-18T09:25:52.081Z,64.90
2022-09-18T09:28:23.093Z,62.69
2022-09-18T09:30:55.890Z,63.53
2022-09-18T09:33:47.821Z,63.91
2022-09-18T09:36:18.026Z,63.70
2022-09-18T09:38:56.564Z,66.34
2022-09-18T09:41:29.136Z,64.44
2022-09-18T09:44:20.882Z,64.96
2022-09-18T09:47:05.773Z,62.72
2022-09-18T09:49:41.347Z,64.18
2022-09-18T09:52:28.263Z,62.37
2022-09-18T09:55:21.238Z,62.56
2022-09-18T09:57:59.829Z,62.23
2022-09-18T10:00:27.115Z,60.69
2022-09-18T10:02:59.570Z,61.61
2022-09-18T10:05:34.901Z,61.92
2022-09-18T10:08:15.227Z,63.27
2022-09-18T10:11:02.324Z,62.38
2022-09-18T10:13:44.258Z,61.40
2022-09-18T10:16:22.823Z,59.91
2022-09-18T10:18:52.459Z,58.70
2022-09-18T10:21:22.070Z,58.67
2022-09-18T10:23:53.007Z,59.70
2022-09-18T10:26:36.261Z,58.56
2022-09-18T10:29:02.666Z,59.06
2022-09-18T10:31:48.570Z,56.34
2022-09-18T10:34:35.303Z,58.26
2022-09-18T10:37:02.052Z,56.77
2022-09-18T10:39:31.839Z,54.57
2022-09-18T10:41:59.935Z,56.38
2022-09-18T10:44:34.750Z,56.35
2022-09-18T10:47:19.492Z,57.33
2022-09-18T10:50:03.079Z,56.96
2022-09-18T10:52:39.008Z,57.22
2022-09-18T10:55:09.165Z,57.19
2022-09-18T10:57:44.621Z,57.63
2022-09-18T11:00:17.048Z,55.93
2022-09-18T11:02:46.448Z,56.05
2022-09-18T11:05:18.628Z,56.10
2022-09-18T11:07:50.439Z,55.29
2022-09-18T11:10:23.547Z,56.09
2022-09-18T11:12:56.371Z,55.76
2022-09-18T11:15:27.572Z,55.97
2022-09-18T11:17:57.207Z,54.53
2022-09-18T11:20:29.093Z,54.73
2022-09-18T11:23:25.031Z,53.82
2022-09-18T11:26:09.036Z,53.68
2022-09-18T11:28:35.489Z,52.27
2022-09-18T11:31:06.260Z,54.37
2022-09-18T11:33:39.885Z,54.14
2022-09-18T11:36:09.941Z,54.50
2022-09-18T11:38:44.872Z,53.59
2022-09-18T11:41:13.526Z,53.75
2022-09-18T11:43:42.936Z,54.17
2022-09-18T11:46:18.835Z,52.11
2022-09-18T11:49:02.476Z,52.95
2022-09-18T11:51:43.988Z,55.87
2022-09-18T11:54:24.181Z,58.08
2022-09-18T11:56:53.696Z,59.39
2022-09-18T11:59:42.536Z,57.13
2022-09-18T12:02:41.372Z,58.94
2022-09-18T12:05:13.601Z,58.56
2022-09-18T12:07:57.712Z,59.17
2022-09-18T12:11:05.641Z,61.11
2022-09-18T12:13:45.210Z,57.48
2022-09-18T12:16:20.633Z,59.31
2022-09-18T12:19:19.101Z,56.99
2022-09-18T12:22:08.756Z,57.13
2022-09-18T12:24:35.151Z,56.54
2022-09-18T12:27:20.475Z,52.93
2022-09-18T12:29:50.413Z,51.56
2022-09-18T12:32:49.136Z,51.48
2022-09-18T12:35:21.500Z,54.14
2022-09-18T12:38:06.565Z,60.06
2022-09-18T12:41:35.050Z,58.36
2022-09-18T12:44:49.213Z,58.75
2022-09-18T12:47:41.004Z,63.27
2022-09-18T12:50:28.600Z,62.47
2022-09-18T12:53:14.753Z,60.30
2022-09-18T12:55:50.572Z,60.72
2022-09-18T12:58:28.984Z,60.71
2022-09-18T13:00:59.210Z,61.85
2022-09-18T13:03:39.233Z,61.71
2022-09-18T13:06:19.977Z,63.68
2022-09-18T13:08:52.487Z,62.41
2022-09-18T13:11:31.892Z,65.26
2022-09-18T13:14:23.817Z,64.27
2022-09-18T13:16:57.887Z,65.23
2022-09-18T13:19:35.491Z,64.20
2022-09-18T13:22:13.104Z,64.56
2022-09-18T13:24:42.061Z,64.22
2022-09-18T13:27:13.142Z,64.13
2022-09-18T13:29:51.384Z,65.29
2022-09-18T13:32:37.785Z,64.63
2022-09-18T13:35:13.538Z,65.24
2022-09-18T13:37:42.703Z,62.75
2022-09-18T13:40:27.631Z,63.96
2022-09-18T13:42:54.158Z,62.00
2022-09-18T13:45:24.271Z,63.65
2022-09-18T13:48:01.897Z,65.83
2022-09-18T13:50:30.227Z,64.62
2022-09-18T13:52:58.376Z,63.66
2022-09-18T13:55:26.647Z,64.72
2022-09-18T13:58:30.828Z,65.24
2022-09-18T14:00:58.690Z,63.38
2022-09-18T14:03:27.800Z,64.68
2022-09-18T14:05:54.908Z,64.24
2022-09-18T14:08:24.295Z,64.06
2022-09-18T14:11:15.069Z,63.48
2022-09-18T14:13:54.632Z,65.90
2022-09-18T14:16:24.508Z,66.18
2022-09-18T14:18:56.569Z,63.79
2022-09-18T14:21:43.660Z,62.84
2022-09-18T14:24:15.826Z,60.66
2022-09-18T14:26:42.148Z,60.69
2022-09-18T14:29:08.465Z,61.25
2022-09-18T14:31:55.494Z,63.62
2022-09-18T14:34:32.512Z,61.16
2022-09-18T14:37:01.891Z,61.79
2022-09-18T14:39:35.753Z,61.51
2022-09-18T14:42:14.166Z,63.78
2022-09-18T14:44:50.210Z,64.28
2022-09-18T14:47:25.836Z,64.84
2022-09-18T14:49:52.319Z,64.95
2022-09-18T14:52:25.016Z,67.45
2022-09-18T14:54:53.854Z,65.54
2022-09-18T14:57:24.285Z,65.56
2022-09-18T14:59:54.281Z,66.20
2022-09-18T15:02:25.336Z,66.09
2022-09-18T15:04:52.308Z,67.32
2022-09-18T15:07:21.407Z,65.91
2022-09-18T15:09:50.621Z,65.29
2022-09-18T15:12:24.484Z,65.90
2022-09-18T15:14:51.954Z,65.50
2022-09-18T15:17:25.844Z,68.77
2022-09-18T15:20:15.165Z,66.44
2022-09-18T15:22:41.796Z,66.34
2022-09-18T15:25:16.188Z,67.01
2022-09-18T15:27:44.072Z,65.32
2022-09-18T15:30:25.516Z,65.57
2022-09-18T15:33:07.273Z,66.07
2022-09-18T15:35:36.408Z,65.01
2022-09-18T15:38:07.462Z,65.54
2022-09-18T15:40:37.258Z,64.53
2022-09-18T15:43:07.104Z,64.09
2022-09-18T15:45:35.692Z,64.46
2022-09-18T15:48:34.189Z,64.85
2022-09-18T15:51:10.901Z,64.32
2022-09-18T15:53:38.471Z,64.49
2022-09-18T15:56:08.933Z,63.21
2022-09-18T15:58:37.866Z,65.50
2022-09-18T16:01:06.600Z,64.83
2022-09-18T16:03:34.243Z,64.53
2022-09-18T16:06:04.830Z,63.96
2022-09-18T16:08:37.533Z,64.96
2022-09-18T16:11:06.354Z,63.92
2022-09-18T16:13:38.781Z,63.53
2022-09-18T16:16:08.359Z,61.48
2022-09-18T16:18:49.491Z,61.39
2022-09-18T16:21:16.213Z,63.18
2022-09-18T16:24:21.356Z,63.11
2022-09-18T16:26:48.272Z,64.59
2022-09-18T16:29:20.877Z,63.69
2022-09-18T16:31:47.732Z,63.74
2022-09-18T16:34:21.706Z,62.14
2022-09-18T16:36:48.981Z,65.68
2022-09-18T16:39:18.207Z,63.83
2022-09-18T16:41:45.446Z,64.58
2022-09-18T16:44:13.625Z,64.81
2022-09-18T16:46:48.048Z,64.82
2022-09-18T16:49:17.891Z,62.97
2022-09-18T16:51:44.365Z,66.04
2022-09-18T16:54:10.845Z,64.75
2022-09-18T16:57:06.432Z,64.20
2022-09-18T17:02:33.190Z,64.54
2022-09-18T17:05:01.586Z,63.16
2022-09-18T17:07:31.043Z,62.79
2022-09-18T17:09:58.352Z,63.73
2022-09-18T17:12:25.087Z,62.30
2022-09-18T17:14:51.700Z,64.98
2022-09-18T17:17:18.904Z,64.46
2022-09-18T17:19:45.427Z,63.58
2022-09-18T17:22:11.965Z,62.64
2022-09-18T17:24:38.388Z,63.65
2022-09-18T17:27:04.801Z,63.37
2022-09-18T17:29:31.288Z,63.37
2022-09-18T17:31:57.872Z,64.17
2022-09-18T17:34:24.402Z,63.15
2022-09-18T17:36:50.793Z,64.70
2022-09-18T17:39:17.319Z,64.94
2022-09-18T17:41:44.869Z,64.39
2022-09-18T17:44:11.389Z,63.91
2022-09-18T17:46:37.996Z,66.54
2022-09-18T17:49:49.685Z,66.22
2022-09-18T17:52:16.621Z,65.54
2022-09-18T17:54:43.116Z,64.27
2022-09-18T17:57:12.530Z,64.92
2022-09-18T17:59:40.107Z,66.12
2022-09-18T18:02:08.070Z,68.17
2022-09-18T18:04:35.268Z,67.51
2022-09-18T18:07:02.876Z,64.89
2022-09-18T18:09:29.325Z,66.28
2022-09-18T18:11:55.764Z,66.18
2022-09-18T18:14:28.227Z,66.82
2022-09-18T18:16:55.165Z,65.00
2022-09-18T18:19:21.639Z,65.50
2022-09-18T18:21:48.084Z,67.38
2022-09-18T18:24:16.860Z,67.25
2022-09-18T18:26:44.673Z,67.14
2022-09-18T18:29:13.470Z,67.17
2022-09-18T18:31:42.949Z,67.38
2022-09-18T18:34:10.969Z,67.62
2022-09-18T18:36:39.941Z,67.22
2022-09-18T18:39:09.825Z,69.03
2022-09-18T18:41:37.103Z,66.62
2022-09-18T18:44:05.597Z,67.83
2022-09-18T18:46:37.193Z,66.69
2022-09-18T18:49:09.770Z,68.18
2022-09-18T18:51:47.170Z,69.80
2022-09-18T18:54:19.023Z,67.63
2022-09-18T18:56:46.932Z,67.57
2022-09-18T18:59:15.966Z,68.87
2022-09-18T19:01:43.507Z,68.62
2022-09-18T19:04:16.243Z,66.59
2022-09-18T19:06:44.095Z,70.57
2022-09-18T19:09:17.008Z,69.21
2022-09-18T19:11:49.187Z,69.58
2022-09-18T19:14:25.843Z,69.80
2022-09-18T19:16:53.754Z,67.31
2022-09-18T19:19:23.345Z,71.65
2022-09-18T19:21:50.141Z,70.23
2022-09-18T19:24:18.562Z,70.75
2022-09-18T19:26:45.902Z,69.29
2022-09-18T19:29:15.618Z,68.60
2022-09-18T19:31:44.105Z,67.54
2022-09-18T19:34:16.355Z,69.15
2022-09-18T19:36:46.594Z,70.04
2022-09-18T19:39:13.583Z,69.31
2022-09-18T19:41:55.373Z,70.61
2022-09-18T19:44:43.051Z,68.85
2022-09-18T19:47:25.183Z,69.60
2022-09-18T19:49:52.528Z,70.91
2022-09-18T19:52:21.943Z,69.08
2022-09-18T19:54:50.741Z,68.49
2022-09-18T19:57:18.216Z,69.04
2022-09-18T19:59:44.947Z,68.84
2022-09-18T20:02:19.860Z,68.25
2022-09-18T20:04:46.587Z,69.67
2022-09-18T20:07:13.968Z,69.22
2022-09-18T20:09:40.803Z,68.77
2022-09-18T20:12:08.932Z,71.98
2022-09-18T20:14:35.370Z,70.19
2022-09-18T20:17:01.758Z,69.05
2022-09-18T20:19:28.237Z,69.54
2022-09-18T20:21:54.646Z,69.38
2022-09-18T20:24:21.209Z,67.36
2022-09-18T20:26:47.671Z,68.77
2022-09-18T20:29:16.715Z,71.00
2022-09-18T20:31:45.691Z,69.85
2022-09-18T20:34:12.872Z,69.33
2022-09-18T20:36:39.257Z,70.43
2022-09-18T20:39:05.773Z,71.88
2022-09-18T20:41:32.360Z,69.99
2022-09-18T20:44:04.740Z,71.90
2022-09-18T20:46:36.290Z,71.87
2022-09-18T20:49:03.829Z,72.27
2022-09-18T20:51:37.633Z,68.43
2022-09-18T20:54:08.106Z,67.33
2022-09-18T20:56:41.187Z,70.55
2022-09-18T20:59:08.773Z,71.46
2022-09-18T21:01:36.364Z,69.67
2022-09-18T21:04:03.168Z,70.85
2022-09-18T21:06:31.960Z,71.62
2022-09-18T21:08:59.378Z,69.30
2022-09-18T21:11:28.483Z,70.00
2022-09-18T21:14:00.756Z,71.26
2022-09-18T21:16:29.536Z,70.54
2022-09-18T21:18:59.233Z,71.67
2022-09-18T21:21:27.530Z,70.16
2022-09-18T21:24:00.497Z,68.58
2022-09-18T21:26:33.121Z,70.49
2022-09-18T21:29:17.895Z,71.32
2022-09-18T21:31:45.622Z,70.27
2022-09-18T21:34:23.304Z,70.26
2022-09-18T21:36:57.477Z,68.29
2022-09-18T21:39:25.876Z,68.71
2022-09-18T21:41:53.150Z,68.63
2022-09-18T21:44:27.109Z,68.76
2022-09-18T21:46:55.428Z,67.96
2022-09-18T21:49:22.696Z,67.92
2022-09-18T21:51:49.960Z,68.08
2022-09-18T21:54:19.506Z,70.83
2022-09-18T21:56:51.796Z,68.59
2022-09-18T21:59:23.306Z,67.68
2022-09-18T22:01:52.761Z,68.12
2022-09-18T22:04:24.050Z,69.93
2022-09-18T22:06:50.545Z,69.58
2022-09-18T22:09:25.940Z,67.20
2022-09-18T22:11:52.678Z,67.50
2022-09-18T22:14:24.802Z,69.67
2022-09-18T22:16:53.632Z,69.10
2022-09-18T22:19:20.653Z,67.80
2022-09-18T22:21:49.120Z,67.02
2022-09-18T22:24:21.666Z,66.79
2022-09-18T22:26:56.876Z,66.55
2022-09-18T22:29:34.531Z,67.70
2022-09-18T22:32:01.957Z,69.06
2022-09-18T22:34:30.465Z,68.56
2022-09-18T22:36:58.941Z,68.78
2022-09-18T22:39:25.419Z,67.99
2022-09-18T22:41:52.274Z,67.89
2022-09-18T22:44:22.617Z,70.11
2022-09-18T22:46:54.298Z,68.18
2022-09-18T22:49:22.854Z,68.25
2022-09-18T22:51:50.424Z,67.45
2022-09-18T22:54:17.209Z,66.85
2022-09-18T22:56:49.734Z,66.97
2022-09-18T22:59:17.792Z,68.84
2022-09-18T23:01:51.130Z,66.60
2022-09-18T23:04:19.672Z,65.62
2022-09-18T23:06:48.100Z,65.22
2022-09-18T23:09:16.114Z,65.54
2022-09-18T23:11:44.663Z,65.93
2022-09-18T23:14:18.473Z,69.32
2022-09-18T23:16:45.369Z,70.22
2022-09-18T23:19:26.888Z,67.75
2022-09-18T23:21:54.244Z,67.47
2022-09-18T23:24:22.327Z,67.59
2022-09-18T23:26:51.153Z,66.21
2022-09-18T23:29:20.850Z,67.02
2022-09-18T23:31:58.983Z,68.51
2022-09-18T23:34:29.473Z,68.91
2022-09-18T23:36:56.163Z,68.31
2022-09-18T23:39:26.866Z,67.35
2022-09-18T23:41:53.488Z,69.28
2022-09-18T23:44:22.009Z,66.97
2022-09-18T23:46:49.447Z,69.46
2022-09-18T23:49:18.033Z,69.18
2022-09-18T23:51:48.235Z,67.88
2022-09-18T23:54:26.863Z,70.50
2022-09-18T23:56:54.303Z,67.93
2022-09-18T23:59:23.201Z,67.84
